Time;durP1;ratioP1;P1;durP2;ratioP2;P2;SDS_P1;SDS_P2;PMS_P1;PMS_P2;Temp;Humidity;BMP_temperature;BMP_pressure;BME280_temperature;BME280_humidity;BME280_pressure;Samples;Min_cycle;Max_cycle;Signal;HPM_P1;HPM_P2
2021/12/05 00:19:53;;;;;;;;;1.40;1.40;;;;;5.17;83.31;98161.78;5028868;28;8843;-54
2021/12/05 00:22:23;;;;;;;;;3.00;3.00;;;;;5.15;83.27;98159.28;5084857;28;8984;-54
2021/12/05 00:24:54;;;;;;;;;1.00;0.60;;;;;5.15;83.60;98164.56;5091314;28;8983;-53
2021/12/05 00:27:26;;;;;;;;;1.00;1.00;;;;;5.17;83.44;98167.06;5092159;28;8853;-53
2021/12/05 00:29:56;;;;;;;;;2.40;1.60;;;;;5.17;83.74;98172.34;5089891;28;8942;-55
2021/12/05 00:32:31;;;;;;;;;0.20;0.00;;;;;5.18;83.72;98166.09;5091236;28;8872;-53
2021/12/05 00:38:45;;;;;;;;;1.00;1.00;;;;;5.16;83.12;98160.94;5092081;28;8884;-54
2021/12/05 00:41:36;;;;;;;;;3.00;1.00;;;;;5.15;83.72;98168.97;5091005;28;8964;-53
2021/12/05 00:47:26;;;;;;;;;3.40;1.80;;;;;5.08;83.44;98173.97;5025859;28;8838;-53
2021/12/05 00:50:11;;;;;;;;;0.80;0.40;;;;;5.04;83.66;98179.63;5049868;28;8865;-54
2021/12/05 00:53:04;;;;;;;;;1.00;1.00;;;;;4.99;82.93;98176.53;5049511;28;8838;-53
2021/12/05 00:55:45;;;;;;;;;1.00;1.00;;;;;4.96;83.73;98184.72;5049608;28;8914;-53
2021/12/05 01:01:21;;;;;;;;;1.40;0.60;;;;;4.91;83.98;98193.03;5051704;28;8854;-53
2021/12/05 01:04:26;;;;;;;;;3.60;3.00;;;;;4.87;83.72;98196.06;5051417;28;8850;-53
2021/12/05 01:07:15;;;;;;;;;4.00;3.00;;;;;4.81;83.67;98200.06;5051701;28;8904;-53
2021/12/05 01:09:48;;;;;;;;;3.80;3.20;;;;;4.78;84.18;98202.13;5050840;28;8877;-53
2021/12/05 01:15:06;;;;;;;;;3.80;3.40;;;;;4.76;83.60;98199.59;5097218;28;9522;-54
2021/12/05 01:17:39;;;;;;;;;3.80;3.40;;;;;4.74;83.76;98204.16;5110053;28;8836;-54
2021/12/05 01:20:09;;;;;;;;;4.00;3.00;;;;;4.71;83.77;98209.69;5112264;28;8828;-54
2021/12/05 01:22:42;;;;;;;;;5.20;3.80;;;;;4.69;83.75;98216.03;5111844;28;8858;-53
2021/12/05 01:25:19;;;;;;;;;1.80;1.40;;;;;4.68;84.17;98217.00;5111906;28;8848;-53
2021/12/05 01:27:53;;;;;;;;;1.80;1.80;;;;;4.68;83.48;98227.56;5111946;28;8963;-54
2021/12/05 01:30:30;;;;;;;;;3.60;3.20;;;;;4.68;83.77;98228.41;5110724;28;8852;-53
2021/12/05 01:33:05;;;;;;;;;4.00;4.00;;;;;4.68;84.00;98224.91;5110631;28;8836;-53
2021/12/05 01:35:54;;;;;;;;;3.20;3.00;;;;;4.68;83.74;98222.28;5110905;28;8847;-54
2021/12/05 01:38:35;;;;;;;;;3.00;3.00;;;;;4.64;84.06;98215.59;5112463;28;8831;-54
2021/12/05 01:52:49;;;;;;;;;1.00;1.00;;;;;4.63;83.56;98208.66;4998799;28;8999;-54
2021/12/05 01:58:36;;;;;;;;;5.20;3.60;;;;;4.58;83.49;98205.56;5091124;28;8860;-54
2021/12/05 02:01:18;;;;;;;;;0.60;0.00;;;;;4.56;83.40;98208.31;5092071;28;8834;-53
2021/12/05 02:09:41;;;;;;;;;1.80;1.40;;;;;4.66;83.65;98198.72;5091522;28;8865;-54
2021/12/05 02:15:27;;;;;;;;;2.60;2.60;;;;;4.77;83.11;98205.69;5078198;28;8872;-53
2021/12/05 02:34:35;;;;;;;;;0.20;0.20;;;;;4.89;83.24;98205.53;5036425;28;8875;-54
2021/12/05 02:37:16;;;;;;;;;3.80;3.00;;;;;4.90;82.97;98196.63;5091855;28;8934;-54
2021/12/05 02:40:20;;;;;;;;;0.60;0.20;;;;;4.92;83.37;98191.22;5090660;28;8972;-54
2021/12/05 02:42:54;;;;;;;;;1.00;1.00;;;;;4.92;83.25;98193.84;5105620;28;8827;-54
2021/12/05 02:45:22;;;;;;;;;1.00;1.00;;;;;4.93;82.52;98195.53;5111971;28;9514;-53
2021/12/05 02:47:52;;;;;;;;;1.00;1.00;;;;;4.96;83.08;98197.91;5110972;28;8924;-54
2021/12/05 02:50:19;;;;;;;;;0.00;0.00;;;;;4.97;82.80;98184.59;5110941;28;8839;-55
2021/12/05 02:52:48;;;;;;;;;2.80;1.80;;;;;5.01;82.75;98187.81;5111502;28;8832;-54
2021/12/05 02:55:17;;;;;;;;;1.80;0.60;;;;;5.01;83.00;98188.63;5111301;28;8993;-54
2021/12/05 02:57:51;;;;;;;;;1.40;0.60;;;;;5.00;82.50;98186.13;5110482;28;8889;-54
2021/12/05 03:00:22;;;;;;;;;0.00;0.00;;;;;4.99;82.43;98184.44;5110993;28;8820;-54
2021/12/05 03:02:59;;;;;;;;;0.00;0.00;;;;;4.98;82.57;98188.91;5110488;28;8820;-53
2021/12/05 03:05:28;;;;;;;;;1.00;1.00;;;;;4.99;82.52;98184.44;5110272;28;8963;-54
2021/12/05 03:08:00;;;;;;;;;0.00;0.00;;;;;5.01;82.62;98187.81;5111367;28;8953;-54
2021/12/05 03:10:27;;;;;;;;;1.00;1.00;;;;;5.02;82.28;98189.47;5110273;28;8858;-55
2021/12/05 03:12:55;;;;;;;;;0.60;0.60;;;;;5.02;82.55;98194.75;5110380;28;8928;-55
2021/12/05 03:15:23;;;;;;;;;1.00;1.00;;;;;5.02;82.59;98184.22;5110783;28;8894;-54
2021/12/05 03:17:51;;;;;;;;;2.80;2.80;;;;;5.05;82.41;98186.56;5109967;28;8994;-55
2021/12/05 03:20:19;;;;;;;;;0.60;0.60;;;;;5.09;81.94;98194.09;5110954;28;8877;-54
2021/12/05 03:22:47;;;;;;;;;1.80;1.60;;;;;5.11;82.42;98193.97;5110985;28;8851;-54
2021/12/05 03:25:14;;;;;;;;;1.00;1.00;;;;;5.14;82.55;98188.41;5110922;28;8843;-55
2021/12/05 03:27:42;;;;;;;;;0.00;0.00;;;;;5.16;81.77;98195.25;5111125;28;8842;-54
2021/12/05 03:30:10;;;;;;;;;0.60;0.60;;;;;5.17;82.12;98191.63;5111316;28;8897;-54
2021/12/05 03:32:39;;;;;;;;;2.80;2.20;;;;;5.16;81.50;98183.88;5104077;28;8939;-54
2021/12/05 03:35:06;;;;;;;;;0.80;0.80;;;;;5.12;82.29;98188.56;5091167;28;8954;-54
2021/12/05 03:37:34;;;;;;;;;3.00;3.00;;;;;5.10;82.16;98187.03;5089963;28;8833;-54
2021/12/05 03:40:02;;;;;;;;;0.00;0.00;;;;;5.06;81.79;98191.72;5092374;28;8855;-54
2021/12/05 03:42:30;;;;;;;;;1.00;0.60;;;;;5.06;81.71;98201.44;5094570;28;8985;-55
2021/12/05 03:44:58;;;;;;;;;0.00;0.00;;;;;5.04;81.88;98198.09;5093102;28;8870;-54
2021/12/05 03:47:28;;;;;;;;;1.00;1.00;;;;;5.02;81.90;98192.94;5094125;28;8980;-54
2021/12/05 03:49:55;;;;;;;;;1.00;0.40;;;;;5.02;81.74;98200.03;5093285;28;8854;-55
2021/12/05 03:52:24;;;;;;;;;1.00;1.00;;;;;5.00;82.15;98196.66;5093927;28;8849;-54
2021/12/05 03:54:51;;;;;;;;;1.40;1.40;;;;;4.99;81.75;98206.41;5093342;28;8953;-54
2021/12/05 03:57:19;;;;;;;;;1.00;1.00;;;;;4.95;81.86;98204.16;5093412;28;8826;-54
2021/12/05 03:59:46;;;;;;;;;0.40;0.40;;;;;4.91;82.47;98197.47;5093131;28;8976;-54
2021/12/05 04:02:15;;;;;;;;;0.80;0.80;;;;;4.87;82.53;98199.50;5096515;28;8840;-54
2021/12/05 04:04:42;;;;;;;;;1.00;1.00;;;;;4.83;82.74;98189.34;5113815;28;8828;-54
2021/12/05 04:07:13;;;;;;;;;1.00;0.00;;;;;4.80;82.52;98189.63;5112316;28;8850;-54
2021/12/05 04:09:40;;;;;;;;;1.80;1.80;;;;;4.76;82.32;98188.19;5112966;28;8855;-54
2021/12/05 04:12:09;;;;;;;;;0.00;0.00;;;;;4.71;82.40;98200.97;5112640;28;8978;-55
2021/12/05 04:14:37;;;;;;;;;1.00;0.80;;;;;4.68;82.57;98195.91;5113424;28;8847;-54
2021/12/05 04:17:05;;;;;;;;;0.00;0.00;;;;;4.66;82.47;98195.22;5112253;28;8844;-54
2021/12/05 04:19:33;;;;;;;;;2.20;2.20;;;;;4.64;82.89;98199.78;5113706;28;8832;-55
2021/12/05 04:22:01;;;;;;;;;1.00;1.00;;;;;4.63;82.87;98198.13;5113175;28;8843;-54
2021/12/05 04:24:29;;;;;;;;;0.00;0.00;;;;;4.63;82.67;98195.50;5113506;28;8854;-54
2021/12/05 04:26:56;;;;;;;;;0.20;0.00;;;;;4.63;82.57;98198.13;5113440;28;8857;-54
2021/12/05 04:29:26;;;;;;;;;0.00;0.00;;;;;4.60;82.44;98196.59;5113762;28;8850;-53
2021/12/05 04:31:54;;;;;;;;;0.20;0.20;;;;;4.58;82.52;98203.75;5112773;28;8838;-55
2021/12/05 04:34:21;;;;;;;;;0.00;0.00;;;;;4.58;82.84;98201.13;5092700;28;8866;-54
2021/12/05 04:36:55;;;;;;;;;0.80;0.80;;;;;4.56;82.69;98197.78;5093701;28;8854;-54
2021/12/05 04:39:23;;;;;;;;;0.00;0.00;;;;;4.53;82.48;98198.06;5091757;28;8841;-54
2021/12/05 04:41:51;;;;;;;;;1.00;0.00;;;;;4.50;82.43;98203.56;5093172;28;8849;-54
2021/12/05 04:44:19;;;;;;;;;0.00;0.00;;;;;4.49;82.39;98207.16;5092828;28;8976;-54
2021/12/05 04:46:47;;;;;;;;;0.00;0.00;;;;;4.45;82.86;98205.75;5093499;28;8895;-54
2021/12/05 04:49:15;;;;;;;;;0.00;0.00;;;;;4.43;82.65;98206.84;5092660;28;8874;-54
2021/12/05 04:51:43;;;;;;;;;0.00;0.00;;;;;4.44;82.82;98214.63;5093295;28;8862;-54
2021/12/05 04:54:11;;;;;;;;;0.00;0.00;;;;;4.46;82.55;98214.47;5093691;28;8845;-54
2021/12/05 04:56:38;;;;;;;;;0.00;0.00;;;;;4.47;83.08;98208.25;5093209;28;8837;-54
2021/12/05 04:59:11;;;;;;;;;0.00;0.00;;;;;4.49;82.68;98203.72;5092165;28;8853;-54
2021/12/05 05:01:39;;;;;;;;;1.00;1.00;;;;;4.49;82.28;98207.16;5092429;28;8857;-54
2021/12/05 05:04:16;;;;;;;;;0.00;0.00;;;;;4.48;82.26;98204.69;5109816;28;8836;-54
2021/12/05 05:06:44;;;;;;;;;0.00;0.00;;;;;4.50;82.69;98208.00;5114178;28;8857;-54
2021/12/05 05:09:12;;;;;;;;;0.20;0.20;;;;;4.51;82.36;98209.69;5112459;28;8877;-54
2021/12/05 05:11:41;;;;;;;;;0.00;0.00;;;;;4.53;82.83;98210.38;5112972;28;8974;-54
2021/12/05 05:14:09;;;;;;;;;1.00;0.00;;;;;4.58;82.51;98208.22;5113200;28;8943;-54
2021/12/05 05:16:37;;;;;;;;;1.00;1.00;;;;;4.62;82.57;98199.06;5091985;28;8846;-55
2021/12/05 05:19:05;;;;;;;;;0.20;0.20;;;;;4.65;82.44;98204.91;5092944;28;8856;-54
2021/12/05 05:21:39;;;;;;;;;1.80;0.40;;;;;4.70;82.15;98207.16;5092740;28;8867;-55
2021/12/05 05:24:23;;;;;;;;;0.00;0.00;;;;;4.75;81.49;98212.91;5091649;28;8856;-55
2021/12/05 05:30:25;;;;;;;;;0.80;0.80;;;;;4.84;81.16;98220.03;5029000;28;8906;-54
2021/12/05 05:44:29;;;;;;;;;0.00;0.00;;;;;4.92;81.41;98217.59;5058476;28;8973;-54
2021/12/05 05:47:03;;;;;;;;;0.00;0.00;;;;;4.91;80.96;98229.09;5072271;28;8933;-54
2021/12/05 05:49:47;;;;;;;;;0.00;0.00;;;;;4.89;80.80;98226.63;5070397;28;8840;-55
2021/12/05 05:52:15;;;;;;;;;1.00;1.00;;;;;4.87;80.86;98223.25;5071879;28;8862;-54
2021/12/05 05:54:46;;;;;;;;;0.00;0.00;;;;;4.85;80.83;98224.34;5071218;28;8868;-54
2021/12/05 05:57:20;;;;;;;;;0.00;0.00;;;;;4.83;81.38;98223.63;5070884;28;8862;-55
2021/12/05 05:59:58;;;;;;;;;0.00;0.00;;;;;4.80;81.17;98231.81;5070641;28;8933;-54
2021/12/05 06:05:11;;;;;;;;;1.00;0.60;;;;;4.73;80.92;98231.47;5070806;28;8843;-54
2021/12/05 06:07:43;;;;;;;;;0.00;0.00;;;;;4.69;80.81;98229.22;5071576;28;8844;-55
2021/12/05 06:10:11;;;;;;;;;0.00;0.00;;;;;4.67;81.33;98232.00;5070901;28;8844;-54
2021/12/05 06:12:39;;;;;;;;;0.00;0.00;;;;;4.65;81.26;98241.81;5070830;28;8824;-55
2021/12/05 06:15:08;;;;;;;;;0.00;0.00;;;;;4.60;81.58;98235.25;5091117;28;8859;-54
2021/12/05 06:17:36;;;;;;;;;0.00;0.00;;;;;4.60;81.06;98240.53;5111280;28;8856;-54
2021/12/05 06:20:03;;;;;;;;;0.00;0.00;;;;;4.56;81.23;98241.75;5111654;28;8990;-55
2021/12/05 06:22:31;;;;;;;;;0.00;0.00;;;;;4.54;81.49;98246.31;5111306;28;8848;-54
2021/12/05 06:24:59;;;;;;;;;0.00;0.00;;;;;4.53;80.83;98245.50;5111273;28;8831;-54
2021/12/05 06:27:27;;;;;;;;;0.00;0.00;;;;;4.52;80.91;98248.25;5109957;28;8920;-55
2021/12/05 06:30:04;;;;;;;;;0.00;0.00;;;;;4.49;81.06;98248.50;5110291;28;8912;-54
2021/12/05 06:36:48;;;;;;;;;0.00;0.00;;;;;4.46;81.41;98254.00;5110617;28;8862;-55
2021/12/05 06:38:24;;;;;;;;;0.00;0.00;;;;;4.35;81.03;98254.88;5109920;28;8844;-54
2021/12/05 06:41:05;;;;;;;;;0.80;0.00;;;;;4.30;81.67;98264.97;5109523;28;8836;-54
2021/12/05 06:46:20;;;;;;;;;1.00;1.00;;;;;4.17;81.54;98264.28;5102625;28;8855;-54
2021/12/05 06:48:52;;;;;;;;;1.00;0.00;;;;;4.14;81.66;98266.34;5109935;28;8847;-54
2021/12/05 06:51:20;;;;;;;;;0.00;0.00;;;;;4.12;81.17;98263.81;5109766;28;8858;-53
2021/12/05 06:53:48;;;;;;;;;0.00;0.00;;;;;4.13;81.80;98272.56;5097542;28;8829;-54
2021/12/05 06:56:15;;;;;;;;;0.00;0.00;;;;;4.11;81.77;98279.75;5089625;28;8926;-54
2021/12/05 06:58:43;;;;;;;;;0.60;0.00;;;;;4.07;81.61;98287.06;5090498;28;8842;-54
2021/12/05 07:01:11;;;;;;;;;0.00;0.00;;;;;4.05;81.79;98291.59;5088391;28;8962;-55
2021/12/05 07:03:41;;;;;;;;;0.00;0.00;;;;;4.02;81.28;98291.84;5090329;28;8838;-54
2021/12/05 07:06:11;;;;;;;;;0.00;0.00;;;;;4.00;81.67;98304.31;5090707;28;8979;-54
2021/12/05 07:08:41;;;;;;;;;3.00;1.00;;;;;3.98;81.84;98306.19;5089367;28;8830;-54
2021/12/05 07:11:13;;;;;;;;;0.00;0.00;;;;;3.95;81.27;98310.91;5090379;28;8865;-54
2021/12/05 07:16:35;;;;;;;;;0.00;0.00;;;;;3.96;81.30;98321.28;5084955;28;8875;-54
2021/12/05 07:19:18;;;;;;;;;0.00;0.00;;;;;3.98;81.45;98322.00;5093351;28;8844;-55
2021/12/05 07:21:51;;;;;;;;;0.20;0.20;;;;;4.02;81.27;98326.09;5092929;28;8920;-54
2021/12/05 07:24:33;;;;;;;;;0.00;0.00;;;;;4.06;81.12;98324.03;5091866;28;8852;-54
2021/12/05 07:27:09;;;;;;;;;0.00;0.00;;;;;4.11;81.26;98322.72;5093096;28;8970;-54
2021/12/05 07:40:49;;;;;;;;;0.00;0.00;;;;;4.26;81.14;98326.75;5092077;28;8840;-54
2021/12/05 07:43:17;;;;;;;;;1.00;1.00;;;;;4.26;80.74;98325.94;5091354;28;8863;-55
2021/12/05 07:45:49;;;;;;;;;0.00;0.00;;;;;4.29;80.47;98320.41;5106620;28;8849;-54
2021/12/05 07:48:22;;;;;;;;;0.00;0.00;;;;;4.32;80.75;98333.31;5111646;28;8861;-54
2021/12/05 07:50:54;;;;;;;;;0.00;0.00;;;;;4.36;80.85;98343.53;5072025;28;8858;-54
2021/12/05 07:53:29;;;;;;;;;1.00;1.00;;;;;4.42;80.57;98342.19;5072108;28;8854;-55
2021/12/05 07:56:04;;;;;;;;;0.00;0.00;;;;;4.49;80.49;98346.00;5071166;28;8854;-55
2021/12/05 08:14:21;;;;;;;;;0.40;0.00;;;;;4.63;79.99;98351.81;5069835;28;8857;-54
2021/12/05 08:15:31;;;;;;;;;2.20;0.60;;;;;4.88;79.01;98362.03;5031208;28;8850;-54
2021/12/05 08:17:58;;;;;;;;;0.00;0.00;;;;;4.89;79.14;98355.81;5085669;28;8817;-54
2021/12/05 08:20:26;;;;;;;;;0.20;0.20;;;;;4.90;79.65;98359.28;5111997;28;8991;-54
2021/12/05 08:22:54;;;;;;;;;0.00;0.00;;;;;4.91;78.88;98360.94;5111950;28;8833;-54
2021/12/05 08:25:24;;;;;;;;;0.00;0.00;;;;;4.90;78.75;98354.84;5110779;28;9077;-54
2021/12/05 08:27:57;;;;;;;;;0.00;0.00;;;;;4.87;79.26;98354.25;5111810;28;8971;-54
2021/12/05 08:30:31;;;;;;;;;0.00;0.00;;;;;4.86;78.84;98355.22;5110363;28;8983;-54
2021/12/05 08:33:16;;;;;;;;;0.00;0.00;;;;;4.84;79.10;98359.78;5109413;28;9492;-54
2021/12/05 08:36:13;;;;;;;;;0.00;0.00;;;;;4.84;79.35;98368.53;5111218;28;8984;-54
2021/12/05 09:21:03;;;;;;;;;1.00;1.00;;;;;5.54;77.52;98403.13;5063987;28;8867;-55
2021/12/05 09:29:40;;;;;;;;;1.80;0.00;;;;;5.66;77.35;98416.13;5063191;28;8861;-54
2021/12/05 09:50:59;;;;;;;;;0.80;0.00;;;;;5.83;77.49;98433.19;5062513;28;8875;-55
2021/12/05 10:03:08;;;;;;;;;0.00;0.00;;;;;7.21;73.78;98452.66;5049648;28;8866;-55
2021/12/05 10:08:44;;;;;;;;;0.50;0.50;;;;;8.44;72.03;98456.00;5051336;28;8860;-55
2021/12/05 10:11:25;;;;;;;;;0.50;0.25;;;;;9.11;70.45;98445.88;5050831;28;8847;-55
2021/12/05 10:16:42;;;;;;;;;0.00;0.00;;;;;9.17;70.18;98449.75;5030346;28;8837;-55
2021/12/05 10:35:59;;;;;;;;;0.75;0.75;;;;;7.22;73.35;98468.41;5048413;28;8854;-55
2021/12/05 10:38:29;;;;;;;;;1.50;0.00;;;;;7.14;74.40;98470.03;5049068;28;8838;-55
2021/12/05 10:41:02;;;;;;;;;0.50;0.50;;;;;7.07;73.79;98463.63;5047926;28;9076;-55
2021/12/05 10:43:29;;;;;;;;;0.00;0.00;;;;;6.97;74.12;98476.81;5048683;28;8897;-55
2021/12/05 10:45:57;;;;;;;;;0.50;0.25;;;;;6.91;74.26;98476.53;5049938;28;8916;-55
2021/12/05 10:48:25;;;;;;;;;0.60;0.00;;;;;6.82;74.21;98474.72;5046502;28;8850;-55
2021/12/05 10:50:53;;;;;;;;;0.00;0.00;;;;;6.78;74.15;98474.16;5046973;28;8854;-55
2021/12/05 10:53:21;;;;;;;;;1.00;1.00;;;;;6.69;73.88;98474.91;5045797;28;8868;-55
2021/12/05 10:55:49;;;;;;;;;0.40;0.40;;;;;6.64;74.16;98478.94;5048053;28;8854;-55
2021/12/05 10:58:16;;;;;;;;;0.40;0.40;;;;;6.59;74.06;98489.09;5029074;28;8911;-55
2021/12/05 11:00:44;;;;;;;;;0.00;0.00;;;;;6.55;74.13;98477.09;5025019;28;8871;-55
2021/12/05 11:03:12;;;;;;;;;0.00;0.00;;;;;6.54;74.37;98475.44;5028061;28;8849;-55
2021/12/05 11:05:41;;;;;;;;;0.00;0.00;;;;;6.80;74.02;98487.22;5024176;28;8864;-55
2021/12/05 11:08:09;;;;;;;;;0.00;0.00;;;;;7.36;72.26;98480.38;5025062;28;8858;-55
2021/12/05 11:10:36;;;;;;;;;0.00;0.00;;;;;7.79;71.44;98474.53;5025822;28;8979;-55
2021/12/05 11:13:04;;;;;;;;;0.00;0.00;;;;;7.94;70.55;98481.09;5028010;28;8922;-55
2021/12/05 11:15:36;;;;;;;;;0.00;0.00;;;;;7.87;71.51;98477.31;5028377;28;8867;-55
2021/12/05 11:18:04;;;;;;;;;0.00;0.00;;;;;7.74;71.73;98483.88;5027514;28;9590;-55
2021/12/05 11:20:33;;;;;;;;;0.00;0.00;;;;;7.61;71.94;98488.63;5028296;28;8852;-55
2021/12/05 11:23:01;;;;;;;;;0.00;0.00;;;;;7.49;72.24;98491.56;5025541;28;8880;-55
2021/12/05 11:25:29;;;;;;;;;0.00;0.00;;;;;7.47;72.54;98493.47;5025449;28;8848;-55
2021/12/05 11:27:56;;;;;;;;;0.00;0.00;;;;;7.55;72.29;98502.41;5040899;28;8846;-55
2021/12/05 11:30:30;;;;;;;;;0.00;0.00;;;;;7.52;72.19;98496.56;5047536;28;8869;-55
2021/12/05 11:32:58;;;;;;;;;0.00;0.00;;;;;7.41;72.73;98509.91;5046094;28;8927;-55
2021/12/05 11:35:26;;;;;;;;;0.00;0.00;;;;;7.28;72.95;98501.41;5043082;28;9142;-55
2021/12/05 11:37:55;;;;;;;;;0.00;0.00;;;;;7.23;73.02;98501.84;5040733;28;8861;-55
2021/12/05 11:40:22;;;;;;;;;0.25;0.25;;;;;7.35;72.58;98499.91;5022468;28;8866;-55
2021/12/05 11:42:50;;;;;;;;;0.00;0.00;;;;;7.67;71.82;98505.78;5022882;28;8892;-55
2021/12/05 11:45:17;;;;;;;;;0.00;0.00;;;;;7.96;71.53;98500.31;5025290;28;9171;-55
2021/12/05 11:47:45;;;;;;;;;0.00;0.00;;;;;7.93;71.30;98500.63;5023257;28;8963;-55
2021/12/05 11:50:13;;;;;;;;;0.00;0.00;;;;;7.69;71.98;98505.47;5020989;28;8933;-55
2021/12/05 11:52:41;;;;;;;;;0.00;0.00;;;;;7.47;72.47;98509.38;5021844;28;8840;-55
2021/12/05 11:55:09;;;;;;;;;0.00;0.00;;;;;7.26;72.94;98511.28;5019940;28;8866;-55
2021/12/05 11:57:37;;;;;;;;;0.00;0.00;;;;;7.13;73.08;98516.84;5022068;28;9793;-55
2021/12/05 12:00:05;;;;;;;;;0.00;0.00;;;;;7.05;73.43;98514.03;5020372;28;8915;-55
2021/12/05 12:02:33;;;;;;;;;0.00;0.00;;;;;7.01;73.40;98519.72;5022412;28;8894;-55
2021/12/05 12:05:01;;;;;;;;;0.00;0.00;;;;;6.97;73.49;98513.06;5022870;28;8867;-56
2021/12/05 12:07:29;;;;;;;;;0.00;0.00;;;;;6.98;73.67;98509.44;5019545;28;9600;-55
2021/12/05 12:09:57;;;;;;;;;0.00;0.00;;;;;7.04;73.77;98507.06;5038001;28;8909;-55
2021/12/05 12:12:24;;;;;;;;;0.50;0.00;;;;;7.11;73.41;98507.34;5044816;28;8858;-55
2021/12/05 12:14:52;;;;;;;;;0.00;0.00;;;;;7.18;73.27;98511.13;5042525;28;8974;-55
2021/12/05 12:17:20;;;;;;;;;0.00;0.00;;;;;7.26;73.29;98506.00;5039537;28;8877;-55
2021/12/05 12:19:48;;;;;;;;;0.00;0.00;;;;;7.32;73.33;98511.59;5041415;28;8966;-55
2021/12/05 12:22:16;;;;;;;;;0.00;0.00;;;;;7.38;72.58;98504.91;5043358;28;8846;-55
2021/12/05 12:24:44;;;;;;;;;0.00;0.00;;;;;7.48;72.78;98505.75;5042657;28;8873;-54
2021/12/05 12:27:13;;;;;;;;;0.00;0.00;;;;;7.60;71.79;98509.94;5041109;28;8858;-54
2021/12/05 12:29:40;;;;;;;;;0.00;0.00;;;;;7.68;71.70;98507.44;5042545;28;8976;-54
2021/12/05 12:32:11;;;;;;;;;0.00;0.00;;;;;7.73;71.97;98512.19;5042204;28;8853;-53
2021/12/05 12:34:39;;;;;;;;;0.00;0.00;;;;;7.83;72.08;98513.00;5043265;28;8970;-54
2021/12/05 12:37:07;;;;;;;;;0.00;0.00;;;;;7.91;71.43;98507.84;5040235;28;8858;-54
2021/12/05 12:39:35;;;;;;;;;1.00;0.00;;;;;7.95;71.96;98511.06;5027286;28;9599;-53
2021/12/05 12:42:03;;;;;;;;;0.00;0.00;;;;;7.96;71.61;98512.72;5026207;28;8844;-54
2021/12/05 12:44:30;;;;;;;;;0.00;0.00;;;;;7.99;71.55;98517.75;5044965;28;9583;-54
2021/12/05 12:46:58;;;;;;;;;0.00;0.00;;;;;7.94;71.11;98515.53;5043588;28;8860;-54
2021/12/05 12:49:26;;;;;;;;;0.00;0.00;;;;;7.87;71.46;98530.31;5041006;28;8861;-54
2021/12/05 12:51:56;;;;;;;;;0.00;0.00;;;;;7.81;71.38;98530.88;5044533;28;8971;-54
2021/12/05 12:54:24;;;;;;;;;0.50;0.00;;;;;7.80;71.33;98528.34;5043487;28;8971;-54
2021/12/05 12:56:51;;;;;;;;;0.00;0.00;;;;;7.81;70.90;98530.03;5044444;28;8853;-54
2021/12/05 12:59:20;;;;;;;;;0.00;0.00;;;;;7.82;72.09;98537.84;5043197;28;9043;-54
2021/12/05 13:02:15;;;;;;;;;0.00;0.00;;;;;7.85;71.39;98540.19;5043453;28;8856;-54
2021/12/05 13:05:01;;;;;;;;;0.00;0.00;;;;;7.85;71.46;98539.38;5044043;28;8861;-54
2021/12/05 13:10:29;;;;;;;;;0.00;0.00;;;;;7.90;71.26;98545.13;5022221;28;8864;-54
2021/12/05 13:12:57;;;;;;;;;0.00;0.00;;;;;7.93;71.45;98542.16;5022657;28;8867;-54
2021/12/05 13:15:24;;;;;;;;;0.00;0.00;;;;;7.87;71.65;98548.88;5049498;28;8846;-54
2021/12/05 13:17:52;;;;;;;;;0.00;0.00;;;;;7.79;71.62;98553.19;5061797;28;8849;-54
2021/12/05 13:20:20;;;;;;;;;0.00;0.00;;;;;7.72;71.88;98551.25;5062794;28;8885;-54
2021/12/05 13:22:48;;;;;;;;;0.00;0.00;;;;;7.65;71.87;98560.72;5062763;28;9004;-54
2021/12/05 13:25:15;;;;;;;;;0.00;0.00;;;;;7.60;71.92;98562.94;5060712;28;8876;-54
2021/12/05 13:27:43;;;;;;;;;0.00;0.00;;;;;7.54;72.43;98563.47;5059369;28;8850;-54
2021/12/05 13:30:11;;;;;;;;;0.00;0.00;;;;;7.52;72.73;98566.28;5063541;28;8999;-55
2021/12/05 13:32:39;;;;;;;;;0.00;0.00;;;;;7.50;72.33;98568.19;5062708;28;8980;-54
2021/12/05 13:35:08;;;;;;;;;0.00;0.00;;;;;7.49;72.57;98573.66;5066793;28;8854;-55
2021/12/05 13:37:36;;;;;;;;;0.00;0.00;;;;;7.46;72.88;98574.75;5064280;28;8847;-54
2021/12/05 13:40:04;;;;;;;;;0.00;0.00;;;;;7.42;73.12;98572.53;5064260;28;8851;-55
2021/12/05 13:42:31;;;;;;;;;1.00;1.00;;;;;7.37;73.15;98572.94;5059912;28;8992;-54
2021/12/05 13:44:59;;;;;;;;;0.00;0.00;;;;;7.34;73.08;98569.72;5035084;28;8992;-54
2021/12/05 13:47:29;;;;;;;;;0.00;0.00;;;;;7.29;72.98;98575.38;5025946;28;8856;-55
2021/12/05 13:49:57;;;;;;;;;0.00;0.00;;;;;7.27;73.13;98582.63;5025144;28;8884;-54
2021/12/05 13:52:25;;;;;;;;;0.00;0.00;;;;;7.24;73.23;98582.06;5026023;28;9204;-54
2021/12/05 13:54:53;;;;;;;;;0.00;0.00;;;;;7.22;73.05;98579.56;5021940;28;8852;-54
2021/12/05 13:57:21;;;;;;;;;0.00;0.00;;;;;7.18;73.11;98579.94;5024471;28;8845;-54
2021/12/05 13:59:49;;;;;;;;;0.00;0.00;;;;;7.16;73.15;98581.91;5023815;28;8852;-54
2021/12/05 14:02:19;;;;;;;;;0.00;0.00;;;;;7.14;73.41;98589.16;5021979;28;8983;-54
2021/12/05 14:04:47;;;;;;;;;0.00;0.00;;;;;7.13;73.34;98595.41;5020300;28;8859;-54
2021/12/05 14:07:14;;;;;;;;;0.25;0.25;;;;;7.11;73.20;98602.63;5022784;28;9185;-55
2021/12/05 14:09:43;;;;;;;;;0.00;0.00;;;;;7.11;73.17;98618.50;5021525;28;8864;-55
2021/12/05 14:12:10;;;;;;;;;0.00;0.00;;;;;7.09;73.10;98615.16;5023503;28;9002;-55
2021/12/05 14:14:39;;;;;;;;;0.00;0.00;;;;;7.09;73.20;98615.16;5029789;28;8838;-55
2021/12/05 14:17:07;;;;;;;;;0.00;0.00;;;;;7.07;73.57;98615.31;5041923;28;8974;-55
2021/12/05 14:19:35;;;;;;;;;0.00;0.00;;;;;7.06;73.56;98620.75;5044007;28;8858;-55
2021/12/05 14:22:03;;;;;;;;;0.00;0.00;;;;;7.06;73.70;98626.03;5043437;28;8884;-55
2021/12/05 14:24:30;;;;;;;;;0.00;0.00;;;;;7.05;73.68;98632.31;5041445;28;8858;-55
2021/12/05 14:26:58;;;;;;;;;0.00;0.00;;;;;7.05;73.73;98640.25;5044047;28;8911;-55
2021/12/05 14:29:26;;;;;;;;;0.00;0.00;;;;;7.04;73.16;98638.56;5043055;28;8830;-55
2021/12/05 14:31:56;;;;;;;;;0.00;0.00;;;;;7.01;73.22;98639.66;5036078;28;8842;-55
2021/12/05 14:34:24;;;;;;;;;0.00;0.00;;;;;6.98;73.74;98645.19;5023627;28;8840;-55
2021/12/05 14:36:51;;;;;;;;;0.00;0.00;;;;;6.95;73.97;98652.56;5022585;28;8994;-55
2021/12/05 14:39:19;;;;;;;;;0.00;0.00;;;;;6.92;73.75;98648.41;5022289;28;8840;-55
2021/12/05 14:41:47;;;;;;;;;0.00;0.00;;;;;6.91;74.00;98657.28;5022844;28;8870;-55
2021/12/05 14:44:15;;;;;;;;;0.00;0.00;;;;;6.89;74.07;98655.75;5023345;28;8868;-55
2021/12/05 14:46:43;;;;;;;;;0.00;0.00;;;;;6.86;74.08;98661.28;5024191;28;8865;-55
2021/12/05 14:49:11;;;;;;;;;0.00;0.00;;;;;6.81;74.34;98668.81;5025370;28;8848;-55
2021/12/05 14:51:39;;;;;;;;;0.00;0.00;;;;;6.77;74.29;98677.94;5023971;28;8840;-55
2021/12/05 14:54:06;;;;;;;;;0.00;0.00;;;;;6.72;74.59;98675.69;5025573;28;9534;-54
2021/12/05 14:56:34;;;;;;;;;0.00;0.00;;;;;6.69;74.37;98683.88;5028972;28;8846;-55
2021/12/05 14:59:02;;;;;;;;;0.00;0.00;;;;;6.67;74.42;98682.34;5044515;28;9866;-55
2021/12/05 15:01:30;;;;;;;;;0.00;0.00;;;;;6.63;74.55;98695.00;5037193;28;8836;-55
2021/12/05 15:04:00;;;;;;;;;0.00;0.00;;;;;6.62;74.69;98700.41;5031413;28;9541;-55
2021/12/05 15:06:29;;;;;;;;;0.00;0.00;;;;;6.58;74.81;98702.44;5023424;28;8853;-55
2021/12/05 15:08:57;;;;;;;;;0.00;0.00;;;;;6.56;74.71;98700.91;5025795;28;9582;-55
2021/12/05 15:11:24;;;;;;;;;0.00;0.00;;;;;6.53;75.00;98707.28;5028069;28;9927;-55
2021/12/05 15:13:52;;;;;;;;;0.00;0.00;;;;;6.51;75.06;98714.50;5024232;28;8853;-55
2021/12/05 15:16:20;;;;;;;;;0.00;0.00;;;;;6.47;74.95;98720.19;5040472;28;9499;-55
2021/12/05 15:18:48;;;;;;;;;0.00;0.00;;;;;6.45;75.11;98730.06;5043087;28;8850;-54
2021/12/05 15:21:15;;;;;;;;;0.00;0.00;;;;;6.42;75.28;98720.56;5039101;28;8846;-55
2021/12/05 15:23:44;;;;;;;;;0.00;0.00;;;;;6.41;75.21;98733.91;5042218;28;8869;-55
2021/12/05 15:26:12;;;;;;;;;0.00;0.00;;;;;6.40;75.11;98737.50;5033924;28;8852;-55
2021/12/05 15:28:40;;;;;;;;;0.00;0.00;;;;;6.38;75.27;98742.09;5019408;28;8886;-55
2021/12/05 15:31:08;;;;;;;;;1.00;1.00;;;;;6.35;75.15;98747.59;5021843;28;8994;-54
2021/12/05 15:33:37;;;;;;;;;0.00;0.00;;;;;6.32;75.53;98751.38;5022201;28;8852;-55
2021/12/05 15:36:04;;;;;;;;;0.80;0.80;;;;;6.30;75.56;98753.28;5022204;28;10024;-55
2021/12/05 15:38:33;;;;;;;;;6.80;5.20;;;;;6.29;76.07;98761.34;5021083;28;8848;-55
2021/12/05 15:41:02;;;;;;;;;17.60;11.60;;;;;6.28;75.46;98760.50;5020384;28;8856;-56
2021/12/05 15:43:30;;;;;;;;;3.00;2.40;;;;;6.27;75.71;98765.91;5018442;28;8880;-55
2021/12/05 15:45:58;;;;;;;;;7.40;6.80;;;;;6.26;75.66;98780.09;5017882;28;8875;-55
2021/12/05 15:48:28;;;;;;;;;1.00;1.00;;;;;6.24;75.95;98774.09;5016788;28;9326;-55
2021/12/05 15:50:56;;;;;;;;;3.20;3.20;;;;;6.22;75.33;98778.66;5020620;28;8845;-55
2021/12/05 15:53:25;;;;;;;;;2.40;2.40;;;;;6.21;75.94;98777.81;5016425;28;8864;-55